createdAt,value
2019-06-10T00:01:21.325Z,99.90
2019-06-10T00:03:51.842Z,99.90
2019-06-10T00:06:21.256Z,99.90
2019-06-10T00:08:50.722Z,99.90
2019-06-10T00:11:21.275Z,99.90
2019-06-10T00:13:50.806Z,99.90
2019-06-10T00:16:20.893Z,99.90
2019-06-10T00:18:51.070Z,99.90
2019-06-10T00:21:21.721Z,99.90
2019-06-10T00:23:51.782Z,99.90
2019-06-10T00:26:21.651Z,99.90
2019-06-10T00:28:51.367Z,99.90
2019-06-10T00:31:20.871Z,99.90
2019-06-10T00:33:51.983Z,99.90
2019-06-10T00:36:21.520Z,99.90
2019-06-10T00:38:51.700Z,99.90
2019-06-10T00:41:21.889Z,99.90
2019-06-10T00:43:51.765Z,99.90
2019-06-10T00:46:21.348Z,99.90
2019-06-10T00:48:51.053Z,99.90
2019-06-10T00:51:20.925Z,99.90
2019-06-10T00:53:51.320Z,99.90
2019-06-10T00:56:21.621Z,99.90
2019-06-10T00:58:51.392Z,99.90
2019-06-10T01:01:22.009Z,99.90
2019-06-10T01:03:51.654Z,99.90
2019-06-10T01:06:21.498Z,99.90
2019-06-10T01:08:51.358Z,99.90
2019-06-10T01:11:26.691Z,99.90
2019-06-10T01:13:51.500Z,99.90
2019-06-10T01:16:21.734Z,99.90
2019-06-10T01:18:53.452Z,99.90
2019-06-10T01:21:22.102Z,99.90
2019-06-10T01:23:51.292Z,99.90
2019-06-10T01:26:21.520Z,99.90
2019-06-10T01:28:51.652Z,99.90
2019-06-10T01:31:24.237Z,99.90
2019-06-10T01:33:52.017Z,99.90
2019-06-10T01:36:21.306Z,99.90
2019-06-10T01:38:51.179Z,99.90
2019-06-10T01:41:21.386Z,99.90
2019-06-10T01:43:51.411Z,99.90
2019-06-10T01:46:21.239Z,99.90
2019-06-10T01:48:52.189Z,99.90
2019-06-10T01:51:21.681Z,99.90
2019-06-10T01:53:51.420Z,99.90
2019-06-10T01:56:21.380Z,99.90
2019-06-10T01:58:51.496Z,99.90
2019-06-10T02:01:41.295Z,99.90
2019-06-10T02:04:13.106Z,99.90
2019-06-10T02:06:41.630Z,99.90
2019-06-10T02:09:13.411Z,99.90
2019-06-10T02:11:41.750Z,99.90
2019-06-10T02:14:14.626Z,99.90
2019-06-10T02:16:41.876Z,99.90
2019-06-10T02:19:14.153Z,99.90
2019-06-10T02:21:41.995Z,99.90
2019-06-10T02:24:13.194Z,99.90
2019-06-10T02:29:14.419Z,99.90
2019-06-10T02:31:43.962Z,99.90
2019-06-10T02:34:18.362Z,99.90
2019-06-10T02:36:44.729Z,99.90
2019-06-10T02:39:21.476Z,99.90
2019-06-10T02:41:45.102Z,99.90
2019-06-10T02:44:18.465Z,99.90
2019-06-10T02:46:45.285Z,99.90
2019-06-10T02:49:30.137Z,99.90
2019-06-10T02:51:45.356Z,99.90
2019-06-10T02:54:16.891Z,99.90
2019-06-10T02:56:45.620Z,99.90
2019-06-10T02:59:16.135Z,99.90
2019-06-10T03:01:45.766Z,99.90
2019-06-10T03:04:16.347Z,99.90
2019-06-10T03:06:45.876Z,99.90
2019-06-10T03:09:16.523Z,99.90
2019-06-10T03:11:45.960Z,99.90
2019-06-10T03:14:15.708Z,99.90
2019-06-10T03:16:52.894Z,99.90
2019-06-10T03:19:39.634Z,99.90
2019-06-10T03:21:53.034Z,99.90
2019-06-10T03:24:23.968Z,99.90
2019-06-10T03:26:53.177Z,99.90
2019-06-10T03:29:23.724Z,99.90
2019-06-10T03:31:55.229Z,99.90
2019-06-10T03:34:35.376Z,99.90
2019-06-10T03:36:54.944Z,99.90
2019-06-10T03:39:26.892Z,99.90
2019-06-10T03:41:55.063Z,99.90
2019-06-10T03:44:26.368Z,99.90
2019-06-10T03:46:55.160Z,99.90
2019-06-10T03:49:27.037Z,99.90
2019-06-10T03:51:55.232Z,99.90
2019-06-10T03:54:27.711Z,99.90
2019-06-10T03:56:55.391Z,99.90
2019-06-10T03:59:26.501Z,99.90
2019-06-10T04:01:55.436Z,99.90
2019-06-10T04:04:25.582Z,99.90
2019-06-10T04:06:55.622Z,99.90
2019-06-10T04:09:25.857Z,99.90
2019-06-10T04:11:55.812Z,99.90
2019-06-10T04:14:26.452Z,99.90
2019-06-10T04:16:55.896Z,99.90
2019-06-10T04:19:26.832Z,99.90
2019-06-10T04:21:56.026Z,99.90
2019-06-10T04:24:26.626Z,99.90
2019-06-10T04:26:56.260Z,99.90
2019-06-10T04:29:27.107Z,99.90
2019-06-10T04:31:56.575Z,99.90
2019-06-10T04:34:28.574Z,99.90
2019-06-10T04:36:56.818Z,99.90
2019-06-10T04:39:27.367Z,99.90
2019-06-10T04:41:56.984Z,99.90
2019-06-10T04:44:27.527Z,99.90
2019-06-10T04:46:57.099Z,99.90
2019-06-10T04:49:27.081Z,99.90
2019-06-10T04:51:57.169Z,99.90
2019-06-10T04:54:27.030Z,99.90
2019-06-10T04:56:57.260Z,99.90
2019-06-10T04:59:28.764Z,99.90
2019-06-10T05:01:57.418Z,99.90
2019-06-10T05:04:28.144Z,99.90
2019-06-10T05:06:57.477Z,99.90
2019-06-10T05:09:28.811Z,99.90
2019-06-10T05:11:57.567Z,99.90
2019-06-10T05:14:28.737Z,99.90
2019-06-10T05:16:57.826Z,99.90
2019-06-10T05:19:27.900Z,99.90
2019-06-10T05:21:58.084Z,99.90
2019-06-10T05:24:29.593Z,99.90
2019-06-10T05:26:58.258Z,99.90
2019-06-10T05:29:28.363Z,99.90
2019-06-10T05:31:58.353Z,99.90
2019-06-10T05:34:28.779Z,99.90
2019-06-10T05:36:58.508Z,99.90
2019-06-10T05:39:29.173Z,99.90
2019-06-10T05:41:59.469Z,99.90
2019-06-10T05:44:29.931Z,99.90
2019-06-10T05:46:59.248Z,99.90
2019-06-10T05:49:29.220Z,99.90
2019-06-10T05:51:58.831Z,99.90
2019-06-10T05:54:29.114Z,99.90
2019-06-10T05:56:58.437Z,99.90
2019-06-10T05:59:27.648Z,99.90
2019-06-10T06:01:56.949Z,99.90
2019-06-10T06:04:26.412Z,99.90
2019-06-10T06:06:55.705Z,99.90
2019-06-10T06:09:25.133Z,99.90
2019-06-10T06:11:54.449Z,99.90
2019-06-10T06:14:23.645Z,99.90
2019-06-10T06:16:53.379Z,99.90
2019-06-10T06:19:23.123Z,99.90
2019-06-10T06:21:53.082Z,99.90
2019-06-10T06:24:22.331Z,99.90
2019-06-10T06:26:53.447Z,99.90
2019-06-10T06:29:22.437Z,99.90
2019-06-10T06:31:52.257Z,99.90
2019-06-10T06:34:22.556Z,99.90
2019-06-10T06:36:52.946Z,99.90
2019-06-10T06:39:24.265Z,99.90
2019-06-10T06:41:53.072Z,99.90
2019-06-10T06:44:23.414Z,99.90
2019-06-10T06:46:53.316Z,99.90
2019-06-10T06:49:23.200Z,99.90
2019-06-10T06:51:58.313Z,99.90
2019-06-10T06:54:23.476Z,99.90
2019-06-10T06:56:53.509Z,99.90
2019-06-10T06:59:22.893Z,99.90
2019-06-10T07:01:52.544Z,99.90
2019-06-10T07:04:23.540Z,99.90
2019-06-10T07:06:55.680Z,99.90
2019-06-10T07:09:25.062Z,99.90
2019-06-10T07:11:55.939Z,99.90
2019-06-10T07:14:27.513Z,99.90
2019-06-10T07:16:56.746Z,99.90
2019-06-10T07:19:25.951Z,99.90
2019-06-10T07:22:08.751Z,99.90
2019-06-10T07:24:26.149Z,99.90
2019-06-10T07:26:55.360Z,99.90
2019-06-10T07:29:24.791Z,99.90
2019-06-10T07:31:54.089Z,99.90
2019-06-10T07:34:23.309Z,99.90
2019-06-10T07:36:52.596Z,99.90
2019-06-10T07:39:22.698Z,99.90
2019-06-10T07:41:52.871Z,99.90
2019-06-10T07:44:22.746Z,99.90
2019-06-10T07:46:53.066Z,99.90
2019-06-10T07:49:23.781Z,99.90
2019-06-10T07:51:53.178Z,99.90
2019-06-10T07:54:23.075Z,99.90
2019-06-10T07:56:53.650Z,99.90
2019-06-10T07:59:23.401Z,99.90
2019-06-10T08:01:55.163Z,99.90
2019-06-10T08:04:23.776Z,99.90
2019-06-10T08:06:53.191Z,99.90
2019-06-10T08:09:22.790Z,99.90
2019-06-10T08:11:53.261Z,99.90
2019-06-10T08:14:22.720Z,99.90
2019-06-10T08:16:53.157Z,99.90
2019-06-10T08:19:34.543Z,99.90
2019-06-10T08:21:54.131Z,99.90
2019-06-10T08:24:23.321Z,99.90
2019-06-10T08:26:53.082Z,99.90
2019-06-10T08:29:23.423Z,99.90
2019-06-10T08:31:53.381Z,99.90
2019-06-10T08:34:22.751Z,99.90
2019-06-10T08:36:54.364Z,99.90
2019-06-10T08:39:23.236Z,99.90
2019-06-10T08:41:52.909Z,99.90
2019-06-10T08:44:23.130Z,99.90
2019-06-10T08:46:52.617Z,99.90
2019-06-10T08:49:23.857Z,99.90
2019-06-10T08:51:53.600Z,99.90
2019-06-10T08:54:23.510Z,99.90
2019-06-10T08:56:53.990Z,99.90
2019-06-10T08:59:23.749Z,99.90
2019-06-10T09:01:56.906Z,99.90
2019-06-10T09:04:24.399Z,99.90
2019-06-10T09:06:53.883Z,99.90
2019-06-10T09:09:23.234Z,99.90
2019-06-10T09:11:54.588Z,99.90
2019-06-10T09:14:23.615Z,99.90
2019-06-10T09:16:54.582Z,99.90
2019-06-10T09:19:24.052Z,99.90
2019-06-10T09:21:56.291Z,99.90
2019-06-10T09:24:25.059Z,99.90
2019-06-10T09:26:55.473Z,99.90
2019-06-10T09:29:24.825Z,99.90
2019-06-10T09:31:55.921Z,99.90
2019-06-10T09:34:24.972Z,99.90
2019-06-10T09:36:56.840Z,99.90
2019-06-10T09:39:25.140Z,99.90
2019-06-10T09:42:02.376Z,99.90
2019-06-10T09:44:25.225Z,99.90
2019-06-10T09:46:56.047Z,99.90
2019-06-10T09:49:27.107Z,99.90
2019-06-10T09:51:57.618Z,99.90
2019-06-10T09:54:27.512Z,99.90
2019-06-10T09:56:57.565Z,99.90
2019-06-10T09:59:27.380Z,99.90
2019-06-10T10:01:58.907Z,99.90
2019-06-10T10:04:28.150Z,99.90
2019-06-10T10:06:57.983Z,99.90
2019-06-10T10:09:27.598Z,99.90
2019-06-10T10:11:57.284Z,99.90
2019-06-10T10:14:26.705Z,99.90
2019-06-10T10:17:00.336Z,99.90
2019-06-10T10:19:27.882Z,99.90
2019-06-10T10:21:58.568Z,99.90
2019-06-10T10:24:29.065Z,99.90
2019-06-10T10:27:01.777Z,99.90
2019-06-10T10:29:32.692Z,99.00
2019-06-10T10:32:02.600Z,98.90
2019-06-10T10:34:33.491Z,99.90
2019-06-10T10:37:05.635Z,99.90
2019-06-10T10:39:35.997Z,99.70
2019-06-10T10:42:06.762Z,99.90
2019-06-10T10:44:36.448Z,99.90
2019-06-10T10:47:06.665Z,99.90
2019-06-10T10:49:36.329Z,99.90
2019-06-10T10:52:06.271Z,99.50
2019-06-10T10:54:36.732Z,99.20
2019-06-10T10:57:06.619Z,97.80
2019-06-10T10:59:36.256Z,98.30
2019-06-10T11:02:06.199Z,96.20
2019-06-10T11:04:38.442Z,96.00
2019-06-10T11:07:09.868Z,96.00
2019-06-10T11:09:42.337Z,95.80
2019-06-10T11:12:12.904Z,95.00
2019-06-10T11:14:54.948Z,96.00
2019-06-10T11:17:23.408Z,96.30
2019-06-10T11:20:14.144Z,97.90
2019-06-10T11:22:43.456Z,96.20
2019-06-10T11:25:13.185Z,95.50
2019-06-10T11:27:43.160Z,96.50
2019-06-10T11:30:12.588Z,94.80
2019-06-10T11:32:50.683Z,94.70
2019-06-10T11:35:16.521Z,94.30
2019-06-10T11:37:46.805Z,94.80
2019-06-10T11:40:16.447Z,94.90
2019-06-10T11:42:46.302Z,95.50
2019-06-10T11:45:15.972Z,94.80
2019-06-10T11:47:45.257Z,93.30
2019-06-10T11:50:16.445Z,94.10
2019-06-10T11:52:45.683Z,94.50
2019-06-10T11:55:19.154Z,95.20
2019-06-10T11:57:47.768Z,96.10
2019-06-10T12:00:17.587Z,94.70
2019-06-10T12:02:46.842Z,95.60
2019-06-10T12:05:20.496Z,96.40
2019-06-10T12:07:51.860Z,95.80
2019-06-10T12:10:23.353Z,95.60
2019-06-10T12:12:56.429Z,95.30
2019-06-10T12:15:23.946Z,95.90
2019-06-10T12:18:01.859Z,95.80
2019-06-10T12:20:24.504Z,96.10
2019-06-10T12:22:57.910Z,96.50
2019-06-10T12:25:32.514Z,95.70
2019-06-10T12:27:59.322Z,93.70
2019-06-10T12:30:27.288Z,93.60
2019-06-10T12:32:59.129Z,95.10
2019-06-10T12:35:27.359Z,95.00
2019-06-10T12:37:59.514Z,95.70
2019-06-10T12:40:27.483Z,95.50
2019-06-10T12:42:58.325Z,94.50
2019-06-10T12:45:27.825Z,95.10
2019-06-10T12:47:58.482Z,96.00
2019-06-10T12:50:28.144Z,96.20
2019-06-10T12:52:57.890Z,96.90
2019-06-10T12:55:39.305Z,97.30
2019-06-10T12:57:59.880Z,98.30
2019-06-10T13:00:33.184Z,98.90
2019-06-10T13:03:03.801Z,98.10
2019-06-10T13:05:33.269Z,98.50
2019-06-10T13:08:05.786Z,99.30
2019-06-10T13:10:39.424Z,99.40
2019-06-10T13:13:09.334Z,99.10
2019-06-10T13:15:38.587Z,98.80
2019-06-10T13:18:13.465Z,99.50
2019-06-10T13:20:38.885Z,99.90
2019-06-10T13:23:20.442Z,99.90
2019-06-10T13:25:51.248Z,99.90
2019-06-10T13:28:10.405Z,99.90
2019-06-10T13:30:42.644Z,99.90
2019-06-10T13:33:14.458Z,99.90
2019-06-10T13:35:44.300Z,99.90
2019-06-10T13:38:13.989Z,99.90
2019-06-10T13:40:43.694Z,99.90
2019-06-10T13:43:13.541Z,99.90
2019-06-10T13:45:43.130Z,99.80
2019-06-10T13:48:14.856Z,99.70
2019-06-10T13:50:43.261Z,99.50
2019-06-10T13:53:13.529Z,99.60
2019-06-10T13:55:43.713Z,99.90
2019-06-10T13:58:14.666Z,99.90
2019-06-10T14:00:46.878Z,98.50
2019-06-10T14:03:16.307Z,99.00
2019-06-10T14:05:45.646Z,98.20
2019-06-10T14:08:15.379Z,97.20
2019-06-10T14:10:44.809Z,97.50
2019-06-10T14:13:15.369Z,97.80
2019-06-10T14:15:45.354Z,97.40
2019-06-10T14:18:15.334Z,96.80
2019-06-10T14:20:45.075Z,95.40
2019-06-10T14:23:17.602Z,95.80
2019-06-10T14:25:45.177Z,96.20
2019-06-10T14:28:32.254Z,96.60
2019-06-10T14:30:45.416Z,97.00
2019-06-10T14:33:16.678Z,95.60
2019-06-10T14:35:45.660Z,95.60
2019-06-10T14:38:15.891Z,96.30
2019-06-10T14:40:45.229Z,96.00
2019-06-10T14:43:16.215Z,96.80
2019-06-10T14:45:45.555Z,96.90
2019-06-10T14:48:17.235Z,96.50
2019-06-10T14:50:45.608Z,96.00
2019-06-10T14:53:16.814Z,96.00
2019-06-10T14:55:45.660Z,97.00
2019-06-10T14:58:18.655Z,96.80
2019-06-10T15:00:45.821Z,97.60
2019-06-10T15:03:19.021Z,97.90
2019-06-10T15:05:45.924Z,98.20
2019-06-10T15:08:17.114Z,99.30
2019-06-10T15:10:45.999Z,99.90
2019-06-10T15:13:16.087Z,99.90
2019-06-10T15:15:45.804Z,99.90
2019-06-10T15:18:17.992Z,99.90
2019-06-10T15:20:45.948Z,99.90
2019-06-10T15:23:17.369Z,99.90
2019-06-10T15:25:52.426Z,99.90
2019-06-10T15:28:17.644Z,99.80
2019-06-10T15:30:47.613Z,99.50
2019-06-10T15:33:18.522Z,99.50
2019-06-10T15:35:48.292Z,99.00
2019-06-10T15:38:18.854Z,99.60
2019-06-10T15:40:48.389Z,99.20
2019-06-10T15:43:18.064Z,98.80
2019-06-10T15:45:47.433Z,98.90
2019-06-10T15:48:18.418Z,98.20
2019-06-10T15:50:47.491Z,98.20
2019-06-10T15:53:18.672Z,97.90
2019-06-10T15:56:10.350Z,98.10
2019-06-10T15:58:19.871Z,97.80
2019-06-10T16:00:49.309Z,98.10
2019-06-10T16:03:19.307Z,97.70
2019-06-10T16:05:49.419Z,97.70
2019-06-10T16:08:18.661Z,98.10
2019-06-10T16:10:47.824Z,98.10
2019-06-10T16:13:17.068Z,99.10
2019-06-10T16:15:46.769Z,99.80
2019-06-10T16:18:17.109Z,99.90
2019-06-10T16:20:46.869Z,99.90
2019-06-10T16:23:16.120Z,99.90
2019-06-10T16:25:45.411Z,99.90
2019-06-10T16:28:15.888Z,99.90
2019-06-10T16:30:45.121Z,99.90
2019-06-10T16:33:14.846Z,99.90
2019-06-10T16:35:44.664Z,99.90
2019-06-10T16:38:14.885Z,99.90
2019-06-10T16:40:44.044Z,99.90
2019-06-10T16:43:13.297Z,99.90
2019-06-10T16:45:43.273Z,99.90
2019-06-10T16:48:13.175Z,99.90
2019-06-10T16:50:42.732Z,99.90
2019-06-10T16:53:13.638Z,99.90
2019-06-10T16:55:43.078Z,99.90
2019-06-10T16:58:13.040Z,99.90
2019-06-10T17:00:43.251Z,99.90
2019-06-10T17:03:12.850Z,99.90
2019-06-10T17:05:42.752Z,99.90
2019-06-10T17:08:12.667Z,99.90
2019-06-10T17:10:43.502Z,99.90
2019-06-10T17:13:14.540Z,99.90
2019-06-10T17:15:43.846Z,99.90
2019-06-10T17:18:13.201Z,99.90
2019-06-10T17:20:43.074Z,99.90
2019-06-10T17:23:30.630Z,99.90
2019-06-10T17:25:57.029Z,99.90
2019-06-10T17:28:30.832Z,99.90
2019-06-10T17:30:57.957Z,99.90
2019-06-10T17:33:28.942Z,99.90
2019-06-10T17:35:58.124Z,99.90
2019-06-10T17:38:27.353Z,99.90
2019-06-10T17:40:56.533Z,99.90
2019-06-10T17:43:25.764Z,99.90
2019-06-10T17:45:55.057Z,99.90
2019-06-10T17:48:25.936Z,99.90
2019-06-10T17:50:55.100Z,99.90
2019-06-10T17:53:24.468Z,99.90
2019-06-10T17:55:53.646Z,99.90
2019-06-10T17:58:33.456Z,99.90
2019-06-10T18:00:53.712Z,99.90
2019-06-10T18:03:24.642Z,99.90
2019-06-10T18:05:53.801Z,99.90
2019-06-10T18:08:24.451Z,99.90
2019-06-10T18:10:53.915Z,99.90
2019-06-10T18:13:24.751Z,99.90
2019-06-10T18:15:54.126Z,99.90
2019-06-10T18:18:24.215Z,99.90
2019-06-10T18:20:53.845Z,99.90
2019-06-10T18:23:24.835Z,99.90
2019-06-10T18:25:54.226Z,99.90
2019-06-10T18:28:24.871Z,99.90
2019-06-10T18:30:54.361Z,99.90
2019-06-10T18:33:23.593Z,99.90
2019-06-10T18:35:53.223Z,99.90
2019-06-10T18:38:22.748Z,99.90
2019-06-10T18:40:53.566Z,99.90
2019-06-10T18:43:23.199Z,99.90
2019-06-10T18:45:53.233Z,99.90
2019-06-10T18:48:23.243Z,99.90
2019-06-10T18:50:53.268Z,99.90
2019-06-10T18:53:23.735Z,99.90
2019-06-10T18:55:54.855Z,99.90
2019-06-10T18:58:23.895Z,99.90
2019-06-10T19:01:00.647Z,99.90
2019-06-10T19:03:24.059Z,99.90
2019-06-10T19:05:53.293Z,99.90
2019-06-10T19:08:22.635Z,99.90
2019-06-10T19:10:53.560Z,99.90
2019-06-10T19:13:22.888Z,99.90
2019-06-10T19:15:53.093Z,99.90
2019-06-10T19:18:23.246Z,99.90
2019-06-10T19:20:53.578Z,99.90
2019-06-10T19:23:23.083Z,99.90
2019-06-10T19:25:52.699Z,99.90
2019-06-10T19:28:22.912Z,99.90
2019-06-10T19:30:53.785Z,99.90
2019-06-10T19:33:23.970Z,99.90
2019-06-10T19:35:53.868Z,99.90
2019-06-10T19:38:25.802Z,99.90
2019-06-10T19:40:55.863Z,99.90
2019-06-10T19:43:25.476Z,99.90
2019-06-10T19:45:55.345Z,99.90
2019-06-10T19:48:24.948Z,99.90
2019-06-10T19:50:54.755Z,99.90
2019-06-10T19:53:24.596Z,99.90
2019-06-10T19:55:53.998Z,99.90
2019-06-10T19:58:23.728Z,99.90
2019-06-10T20:00:54.428Z,99.90
2019-06-10T20:03:24.817Z,99.90
2019-06-10T20:05:54.528Z,99.90
2019-06-10T20:08:24.544Z,99.90
2019-06-10T20:10:53.753Z,99.90
2019-06-10T20:13:23.243Z,99.90
2019-06-10T20:15:52.692Z,99.90
2019-06-10T20:18:22.686Z,99.90
2019-06-10T20:20:53.991Z,99.90
2019-06-10T20:23:23.096Z,99.90
2019-06-10T20:25:52.698Z,99.90
2019-06-10T20:28:22.490Z,99.90
2019-06-10T20:30:53.118Z,99.90
2019-06-10T20:33:36.352Z,99.90
2019-06-10T20:36:07.497Z,99.90
2019-06-10T20:38:35.466Z,99.90
2019-06-10T20:41:04.759Z,99.90
2019-06-10T20:43:34.081Z,99.90
2019-06-10T20:46:05.903Z,99.90
2019-06-10T20:48:34.137Z,99.90
2019-06-10T20:51:03.482Z,99.90
2019-06-10T20:53:33.846Z,99.90
2019-06-10T20:56:03.981Z,99.90
2019-06-10T20:58:33.437Z,99.90
2019-06-10T21:01:04.597Z,99.90
2019-06-10T21:03:33.510Z,99.90
2019-06-10T21:06:04.339Z,99.90
2019-06-10T21:08:34.032Z,99.90
2019-06-10T21:11:03.348Z,99.90
2019-06-10T21:13:33.110Z,99.90
2019-06-10T21:16:03.691Z,99.90
2019-06-10T21:18:33.335Z,99.90
2019-06-10T21:21:02.507Z,99.90
2019-06-10T21:23:31.832Z,99.90
2019-06-10T21:26:02.868Z,99.90
2019-06-10T21:28:32.725Z,99.90
2019-06-10T21:31:02.756Z,99.90
2019-06-10T21:33:33.273Z,99.90
2019-06-10T21:36:03.938Z,99.90
2019-06-10T21:38:33.324Z,99.90
2019-06-10T21:41:03.238Z,99.90
2019-06-10T21:43:33.222Z,99.90
2019-06-10T21:46:03.613Z,99.90
2019-06-10T21:48:33.266Z,99.90
2019-06-10T21:51:02.615Z,99.90
2019-06-10T21:53:31.905Z,99.90
2019-06-10T21:56:01.131Z,99.90
2019-06-10T21:58:32.639Z,99.90
2019-06-10T22:01:12.045Z,99.90
2019-06-10T22:03:32.341Z,99.90
2019-06-10T22:06:01.520Z,99.90
2019-06-10T22:08:32.731Z,99.90
2019-06-10T22:11:02.517Z,99.90
2019-06-10T22:13:32.855Z,99.90
2019-06-10T22:16:03.300Z,99.90
2019-06-10T22:18:32.661Z,99.90
2019-06-10T22:21:02.878Z,99.90
2019-06-10T22:23:33.108Z,99.90
2019-06-10T22:26:02.880Z,99.90
2019-06-10T22:28:32.812Z,99.90
2019-06-10T22:31:16.025Z,99.90
2019-06-10T22:33:33.192Z,99.90
2019-06-10T22:36:02.525Z,99.90
2019-06-10T22:38:32.868Z,99.90
2019-06-10T22:41:03.171Z,99.90
2019-06-10T22:43:32.872Z,99.90
2019-06-10T22:46:04.036Z,99.90
2019-06-10T22:48:33.369Z,99.90
2019-06-10T22:51:02.818Z,99.90
2019-06-10T22:53:33.338Z,99.90
2019-06-10T22:56:03.040Z,99.90
2019-06-10T22:58:32.401Z,99.90
2019-06-10T23:01:04.034Z,99.90
2019-06-10T23:03:32.474Z,99.90
2019-06-10T23:06:02.666Z,99.90
2019-06-10T23:08:33.382Z,99.90
2019-06-10T23:11:02.988Z,99.90
2019-06-10T23:13:32.412Z,99.90
2019-06-10T23:16:02.599Z,99.90
2019-06-10T23:18:32.118Z,99.90
2019-06-10T23:21:04.070Z,99.90
2019-06-10T23:23:32.640Z,99.90
2019-06-10T23:26:02.969Z,99.90
2019-06-10T23:28:32.816Z,99.90
2019-06-10T23:31:04.888Z,99.90
2019-06-10T23:33:33.168Z,99.90
2019-06-10T23:36:03.935Z,99.90
2019-06-10T23:38:33.534Z,99.90
2019-06-10T23:41:03.811Z,99.90
2019-06-10T23:43:33.284Z,99.90
2019-06-10T23:46:04.370Z,99.90
2019-06-10T23:48:33.401Z,99.90
2019-06-10T23:51:04.690Z,99.90
2019-06-10T23:53:33.581Z,99.90
2019-06-10T23:56:04.808Z,99.90
2019-06-10T23:58:33.849Z,99.90
